sensor_id;sensor_type;location;lat;lon;timestamp;P1;durP1;ratioP1;P2;durP2;ratioP2
36243;SDS011;22284;49.956;19.816;2022-12-18T00:01:23;71.23;;;24.10;;
36243;SDS011;22284;49.956;19.816;2022-12-18T00:04:27;69.37;;;23.37;;
36243;SDS011;22284;49.956;19.816;2022-12-18T00:07:28;70.03;;;24.57;;
36243;SDS011;22284;49.956;19.816;2022-12-18T00:10:29;72.50;;;24.83;;
36243;SDS011;22284;49.956;19.816;2022-12-18T00:13:30;68.93;;;24.17;;
36243;SDS011;22284;49.956;19.816;2022-12-18T00:16:31;62.57;;;23.57;;
36243;SDS011;22284;49.956;19.816;2022-12-18T00:19:34;65.57;;;23.10;;
36243;SDS011;22284;49.956;19.816;2022-12-18T00:22:35;69.10;;;23.67;;
36243;SDS011;22284;49.956;19.816;2022-12-18T00:25:36;62.77;;;22.97;;
36243;SDS011;22284;49.956;19.816;2022-12-18T00:28:37;62.73;;;24.30;;
36243;SDS011;22284;49.956;19.816;2022-12-18T00:31:38;69.20;;;21.90;;
36243;SDS011;22284;49.956;19.816;2022-12-18T00:34:39;66.13;;;24.20;;
36243;SDS011;22284;49.956;19.816;2022-12-18T00:37:40;61.97;;;23.23;;
36243;SDS011;22284;49.956;19.816;2022-12-18T00:40:41;61.73;;;22.83;;
36243;SDS011;22284;49.956;19.816;2022-12-18T00:43:42;71.80;;;24.63;;
36243;SDS011;22284;49.956;19.816;2022-12-18T00:46:43;66.53;;;24.43;;
36243;SDS011;22284;49.956;19.816;2022-12-18T00:49:45;66.30;;;22.73;;
36243;SDS011;22284;49.956;19.816;2022-12-18T00:52:46;68.97;;;25.27;;
36243;SDS011;22284;49.956;19.816;2022-12-18T00:55:47;66.70;;;24.63;;
36243;SDS011;22284;49.956;19.816;2022-12-18T00:58:48;69.37;;;24.23;;
36243;SDS011;22284;49.956;19.816;2022-12-18T01:01:50;62.20;;;23.87;;
36243;SDS011;22284;49.956;19.816;2022-12-18T01:04:51;71.20;;;24.33;;
36243;SDS011;22284;49.956;19.816;2022-12-18T01:07:52;66.13;;;25.00;;
36243;SDS011;22284;49.956;19.816;2022-12-18T01:10:53;63.67;;;22.73;;
36243;SDS011;22284;49.956;19.816;2022-12-18T01:13:54;75.00;;;24.30;;
36243;SDS011;22284;49.956;19.816;2022-12-18T01:16:55;61.73;;;22.60;;
36243;SDS011;22284;49.956;19.816;2022-12-18T01:19:56;67.53;;;23.63;;
36243;SDS011;22284;49.956;19.816;2022-12-18T01:22:57;65.37;;;23.43;;
36243;SDS011;22284;49.956;19.816;2022-12-18T01:26:03;64.77;;;24.07;;
36243;SDS011;22284;49.956;19.816;2022-12-18T01:29:07;69.10;;;24.90;;
36243;SDS011;22284;49.956;19.816;2022-12-18T01:32:08;67.37;;;23.43;;
36243;SDS011;22284;49.956;19.816;2022-12-18T01:35:09;67.17;;;24.07;;
36243;SDS011;22284;49.956;19.816;2022-12-18T01:38:10;68.30;;;24.37;;
36243;SDS011;22284;49.956;19.816;2022-12-18T01:41:11;73.03;;;24.50;;
36243;SDS011;22284;49.956;19.816;2022-12-18T01:47:57;68.40;;;24.23;;
36243;SDS011;22284;49.956;19.816;2022-12-18T01:51:03;67.83;;;24.07;;
36243;SDS011;22284;49.956;19.816;2022-12-18T01:54:06;65.52;;;23.18;;
36243;SDS011;22284;49.956;19.816;2022-12-18T01:57:07;61.90;;;21.53;;
36243;SDS011;22284;49.956;19.816;2022-12-18T02:00:09;64.60;;;24.20;;
36243;SDS011;22284;49.956;19.816;2022-12-18T02:03:16;66.17;;;23.23;;
36243;SDS011;22284;49.956;19.816;2022-12-18T02:06:22;65.77;;;23.87;;
36243;SDS011;22284;49.956;19.816;2022-12-18T02:09:31;66.70;;;23.20;;
36243;SDS011;22284;49.956;19.816;2022-12-18T02:12:42;66.00;;;24.00;;
36243;SDS011;22284;49.956;19.816;2022-12-18T02:16:32;64.27;;;21.77;;
36243;SDS011;22284;49.956;19.816;2022-12-18T02:26:37;63.67;;;22.23;;
36243;SDS011;22284;49.956;19.816;2022-12-18T02:29:48;62.60;;;22.30;;
36243;SDS011;22284;49.956;19.816;2022-12-18T02:32:54;67.47;;;22.20;;
36243;SDS011;22284;49.956;19.816;2022-12-18T02:35:57;52.05;;;18.92;;
36243;SDS011;22284;49.956;19.816;2022-12-18T02:39:00;51.42;;;18.02;;
36243;SDS011;22284;49.956;19.816;2022-12-18T02:42:03;61.63;;;21.80;;
36243;SDS011;22284;49.956;19.816;2022-12-18T02:45:06;61.80;;;22.32;;
36243;SDS011;22284;49.956;19.816;2022-12-18T02:48:08;63.48;;;23.10;;
36243;SDS011;22284;49.956;19.816;2022-12-18T02:51:16;66.40;;;23.80;;
36243;SDS011;22284;49.956;19.816;2022-12-18T02:57:46;58.57;;;23.10;;
36243;SDS011;22284;49.956;19.816;2022-12-18T03:01:01;64.67;;;22.17;;
36243;SDS011;22284;49.956;19.816;2022-12-18T03:04:26;64.73;;;22.57;;
36243;SDS011;22284;49.956;19.816;2022-12-18T03:07:41;62.67;;;22.53;;
36243;SDS011;22284;49.956;19.816;2022-12-18T03:10:49;50.95;;;18.17;;
36243;SDS011;22284;49.956;19.816;2022-12-18T03:13:58;65.50;;;22.17;;
36243;SDS011;22284;49.956;19.816;2022-12-18T03:17:01;64.13;;;22.63;;
36243;SDS011;22284;49.956;19.816;2022-12-18T03:20:06;66.17;;;23.57;;
36243;SDS011;22284;49.956;19.816;2022-12-18T03:23:19;62.63;;;23.50;;
36243;SDS011;22284;49.956;19.816;2022-12-18T03:26:24;68.00;;;23.37;;
36243;SDS011;22284;49.956;19.816;2022-12-18T03:29:29;58.30;;;22.37;;
36243;SDS011;22284;49.956;19.816;2022-12-18T03:32:41;57.97;;;21.47;;
36243;SDS011;22284;49.956;19.816;2022-12-18T03:36:07;64.23;;;22.90;;
36243;SDS011;22284;49.956;19.816;2022-12-18T03:39:09;65.13;;;23.23;;
36243;SDS011;22284;49.956;19.816;2022-12-18T03:42:22;66.23;;;24.63;;
36243;SDS011;22284;49.956;19.816;2022-12-18T03:45:42;67.63;;;23.23;;
36243;SDS011;22284;49.956;19.816;2022-12-18T03:48:48;64.97;;;22.50;;
36243;SDS011;22284;49.956;19.816;2022-12-18T03:52:02;62.97;;;24.33;;
36243;SDS011;22284;49.956;19.816;2022-12-18T03:55:15;68.03;;;24.50;;
36243;SDS011;22284;49.956;19.816;2022-12-18T03:58:19;60.95;;;23.50;;
36243;SDS011;22284;49.956;19.816;2022-12-18T04:01:25;62.93;;;24.63;;
36243;SDS011;22284;49.956;19.816;2022-12-18T04:04:34;62.83;;;22.83;;
36243;SDS011;22284;49.956;19.816;2022-12-18T04:07:38;62.57;;;22.97;;
36243;SDS011;22284;49.956;19.816;2022-12-18T04:10:40;60.60;;;22.67;;
36243;SDS011;22284;49.956;19.816;2022-12-18T04:13:41;64.60;;;23.13;;
36243;SDS011;22284;49.956;19.816;2022-12-18T04:16:43;62.53;;;23.93;;
36243;SDS011;22284;49.956;19.816;2022-12-18T04:19:43;65.33;;;23.80;;
36243;SDS011;22284;49.956;19.816;2022-12-18T04:22:44;63.00;;;22.60;;
36243;SDS011;22284;49.956;19.816;2022-12-18T04:25:47;59.87;;;20.77;;
36243;SDS011;22284;49.956;19.816;2022-12-18T04:28:48;64.90;;;22.93;;
36243;SDS011;22284;49.956;19.816;2022-12-18T04:31:49;61.07;;;22.57;;
36243;SDS011;22284;49.956;19.816;2022-12-18T04:34:50;62.13;;;22.60;;
36243;SDS011;22284;49.956;19.816;2022-12-18T04:37:51;64.97;;;21.30;;
36243;SDS011;22284;49.956;19.816;2022-12-18T04:40:52;63.30;;;21.83;;
36243;SDS011;22284;49.956;19.816;2022-12-18T04:43:53;63.87;;;22.27;;
36243;SDS011;22284;49.956;19.816;2022-12-18T04:46:55;60.60;;;22.27;;
36243;SDS011;22284;49.956;19.816;2022-12-18T04:49:56;58.40;;;20.83;;
36243;SDS011;22284;49.956;19.816;2022-12-18T04:52:57;62.10;;;22.57;;
36243;SDS011;22284;49.956;19.816;2022-12-18T04:56:02;65.57;;;21.73;;
36243;SDS011;22284;49.956;19.816;2022-12-18T04:59:09;59.70;;;21.80;;
36243;SDS011;22284;49.956;19.816;2022-12-18T05:02:10;67.40;;;22.10;;
36243;SDS011;22284;49.956;19.816;2022-12-18T05:05:11;64.13;;;22.53;;
36243;SDS011;22284;49.956;19.816;2022-12-18T05:08:13;62.97;;;25.00;;
36243;SDS011;22284;49.956;19.816;2022-12-18T05:11:14;66.03;;;24.10;;
36243;SDS011;22284;49.956;19.816;2022-12-18T05:14:16;64.90;;;23.20;;
36243;SDS011;22284;49.956;19.816;2022-12-18T05:17:17;65.67;;;23.53;;
36243;SDS011;22284;49.956;19.816;2022-12-18T05:20:18;67.77;;;23.13;;
36243;SDS011;22284;49.956;19.816;2022-12-18T05:23:20;66.80;;;23.20;;
36243;SDS011;22284;49.956;19.816;2022-12-18T05:26:23;67.05;;;23.42;;
36243;SDS011;22284;49.956;19.816;2022-12-18T05:29:24;63.93;;;22.67;;
36243;SDS011;22284;49.956;19.816;2022-12-18T05:32:24;66.07;;;22.83;;
36243;SDS011;22284;49.956;19.816;2022-12-18T05:35:25;70.50;;;24.90;;
36243;SDS011;22284;49.956;19.816;2022-12-18T05:38:27;65.70;;;23.40;;
36243;SDS011;22284;49.956;19.816;2022-12-18T05:41:30;63.83;;;22.13;;
36243;SDS011;22284;49.956;19.816;2022-12-18T05:44:31;68.90;;;22.77;;
36243;SDS011;22284;49.956;19.816;2022-12-18T05:47:32;68.50;;;24.57;;
36243;SDS011;22284;49.956;19.816;2022-12-18T05:50:34;68.60;;;22.33;;
36243;SDS011;22284;49.956;19.816;2022-12-18T05:53:36;47.55;;;16.80;;
36243;SDS011;22284;49.956;19.816;2022-12-18T05:56:38;61.03;;;22.50;;
36243;SDS011;22284;49.956;19.816;2022-12-18T05:59:39;62.63;;;22.87;;
36243;SDS011;22284;49.956;19.816;2022-12-18T06:02:40;66.37;;;22.70;;
36243;SDS011;22284;49.956;19.816;2022-12-18T06:05:42;64.50;;;21.17;;
36243;SDS011;22284;49.956;19.816;2022-12-18T06:08:45;63.83;;;21.33;;
36243;SDS011;22284;49.956;19.816;2022-12-18T06:11:47;58.63;;;21.80;;
36243;SDS011;22284;49.956;19.816;2022-12-18T06:14:48;58.40;;;21.33;;
36243;SDS011;22284;49.956;19.816;2022-12-18T06:17:49;60.83;;;20.53;;
36243;SDS011;22284;49.956;19.816;2022-12-18T06:20:54;60.17;;;20.37;;
36243;SDS011;22284;49.956;19.816;2022-12-18T06:23:57;62.97;;;22.10;;
36243;SDS011;22284;49.956;19.816;2022-12-18T06:26:59;62.27;;;22.20;;
36243;SDS011;22284;49.956;19.816;2022-12-18T06:30:00;63.50;;;22.13;;
36243;SDS011;22284;49.956;19.816;2022-12-18T06:33:01;60.83;;;22.00;;
36243;SDS011;22284;49.956;19.816;2022-12-18T06:36:03;61.60;;;21.73;;
36243;SDS011;22284;49.956;19.816;2022-12-18T06:39:08;71.27;;;29.07;;
36243;SDS011;22284;49.956;19.816;2022-12-18T06:42:09;65.20;;;22.67;;
36243;SDS011;22284;49.956;19.816;2022-12-18T06:45:10;64.67;;;23.03;;
36243;SDS011;22284;49.956;19.816;2022-12-18T06:48:12;65.03;;;22.77;;
36243;SDS011;22284;49.956;19.816;2022-12-18T06:51:15;61.67;;;22.87;;
36243;SDS011;22284;49.956;19.816;2022-12-18T06:54:20;67.27;;;23.63;;
36243;SDS011;22284;49.956;19.816;2022-12-18T06:57:22;66.57;;;23.33;;
36243;SDS011;22284;49.956;19.816;2022-12-18T07:00:22;62.97;;;24.07;;
36243;SDS011;22284;49.956;19.816;2022-12-18T07:03:23;65.03;;;23.43;;
36243;SDS011;22284;49.956;19.816;2022-12-18T07:06:25;56.80;;;23.00;;
36243;SDS011;22284;49.956;19.816;2022-12-18T07:09:26;60.20;;;23.47;;
36243;SDS011;22284;49.956;19.816;2022-12-18T07:12:27;57.10;;;22.03;;
36243;SDS011;22284;49.956;19.816;2022-12-18T07:15:28;66.73;;;23.47;;
36243;SDS011;22284;49.956;19.816;2022-12-18T07:18:29;67.67;;;24.17;;
36243;SDS011;22284;49.956;19.816;2022-12-18T07:21:30;63.93;;;23.43;;
36243;SDS011;22284;49.956;19.816;2022-12-18T07:24:32;74.73;;;31.87;;
36243;SDS011;22284;49.956;19.816;2022-12-18T07:27:34;57.30;;;21.05;;
36243;SDS011;22284;49.956;19.816;2022-12-18T07:30:37;60.30;;;22.97;;
36243;SDS011;22284;49.956;19.816;2022-12-18T07:33:38;68.70;;;24.35;;
36243;SDS011;22284;49.956;19.816;2022-12-18T07:36:39;64.33;;;23.40;;
36243;SDS011;22284;49.956;19.816;2022-12-18T07:39:41;67.67;;;24.47;;
36243;SDS011;22284;49.956;19.816;2022-12-18T07:42:42;65.33;;;23.40;;
36243;SDS011;22284;49.956;19.816;2022-12-18T07:45:43;56.87;;;22.80;;
36243;SDS011;22284;49.956;19.816;2022-12-18T07:48:45;55.70;;;23.63;;
36243;SDS011;22284;49.956;19.816;2022-12-18T07:51:46;59.77;;;22.77;;
36243;SDS011;22284;49.956;19.816;2022-12-18T07:54:49;62.53;;;24.00;;
36243;SDS011;22284;49.956;19.816;2022-12-18T07:57:50;65.83;;;23.83;;
36243;SDS011;22284;49.956;19.816;2022-12-18T08:00:51;63.17;;;24.80;;
36243;SDS011;22284;49.956;19.816;2022-12-18T08:03:53;65.43;;;24.47;;
36243;SDS011;22284;49.956;19.816;2022-12-18T08:06:54;63.47;;;24.97;;
36243;SDS011;22284;49.956;19.816;2022-12-18T08:09:55;70.37;;;26.50;;
36243;SDS011;22284;49.956;19.816;2022-12-18T08:12:56;69.97;;;27.77;;
36243;SDS011;22284;49.956;19.816;2022-12-18T08:19:05;83.50;;;34.20;;
36243;SDS011;22284;49.956;19.816;2022-12-18T08:22:06;79.13;;;33.13;;
36243;SDS011;22284;49.956;19.816;2022-12-18T08:25:07;85.40;;;33.73;;
36243;SDS011;22284;49.956;19.816;2022-12-18T08:28:09;79.67;;;31.07;;
36243;SDS011;22284;49.956;19.816;2022-12-18T08:31:11;81.27;;;30.10;;
36243;SDS011;22284;49.956;19.816;2022-12-18T08:34:12;85.63;;;32.33;;
36243;SDS011;22284;49.956;19.816;2022-12-18T08:37:13;82.63;;;32.93;;
36243;SDS011;22284;49.956;19.816;2022-12-18T08:40:14;90.73;;;32.70;;
36243;SDS011;22284;49.956;19.816;2022-12-18T08:43:15;85.20;;;32.10;;
36243;SDS011;22284;49.956;19.816;2022-12-18T08:46:35;76.90;;;30.00;;
36243;SDS011;22284;49.956;19.816;2022-12-18T08:49:39;82.83;;;30.13;;
36243;SDS011;22284;49.956;19.816;2022-12-18T08:52:41;78.07;;;30.00;;
36243;SDS011;22284;49.956;19.816;2022-12-18T08:55:41;76.03;;;30.27;;
36243;SDS011;22284;49.956;19.816;2022-12-18T08:58:42;69.73;;;26.33;;
36243;SDS011;22284;49.956;19.816;2022-12-18T09:01:44;66.83;;;25.93;;
36243;SDS011;22284;49.956;19.816;2022-12-18T09:04:47;74.47;;;28.97;;
36243;SDS011;22284;49.956;19.816;2022-12-18T09:07:48;67.93;;;27.93;;
36243;SDS011;22284;49.956;19.816;2022-12-18T09:10:49;63.93;;;27.37;;
36243;SDS011;22284;49.956;19.816;2022-12-18T09:13:51;69.30;;;28.17;;
36243;SDS011;22284;49.956;19.816;2022-12-18T09:16:54;77.60;;;30.23;;
36243;SDS011;22284;49.956;19.816;2022-12-18T09:19:55;73.87;;;30.57;;
36243;SDS011;22284;49.956;19.816;2022-12-18T09:22:56;80.50;;;29.73;;
36243;SDS011;22284;49.956;19.816;2022-12-18T09:25:59;73.93;;;28.77;;
36243;SDS011;22284;49.956;19.816;2022-12-18T09:29:01;69.33;;;28.10;;
36243;SDS011;22284;49.956;19.816;2022-12-18T09:32:03;75.00;;;27.87;;
36243;SDS011;22284;49.956;19.816;2022-12-18T09:35:05;73.30;;;28.70;;
36243;SDS011;22284;49.956;19.816;2022-12-18T09:38:07;75.13;;;31.33;;
36243;SDS011;22284;49.956;19.816;2022-12-18T09:44:31;74.37;;;29.33;;
36243;SDS011;22284;49.956;19.816;2022-12-18T09:47:42;74.77;;;28.80;;
36243;SDS011;22284;49.956;19.816;2022-12-18T09:50:46;73.05;;;29.98;;
36243;SDS011;22284;49.956;19.816;2022-12-18T09:53:50;76.37;;;29.50;;
36243;SDS011;22284;49.956;19.816;2022-12-18T09:56:53;67.17;;;28.10;;
36243;SDS011;22284;49.956;19.816;2022-12-18T09:59:55;68.17;;;28.70;;
36243;SDS011;22284;49.956;19.816;2022-12-18T10:03:03;76.00;;;28.90;;
36243;SDS011;22284;49.956;19.816;2022-12-18T10:06:14;75.20;;;30.13;;
36243;SDS011;22284;49.956;19.816;2022-12-18T10:09:40;71.27;;;30.30;;
36243;SDS011;22284;49.956;19.816;2022-12-18T10:13:02;71.50;;;29.20;;
36243;SDS011;22284;49.956;19.816;2022-12-18T10:16:16;72.53;;;28.33;;
36243;SDS011;22284;49.956;19.816;2022-12-18T10:22:42;70.07;;;29.87;;
36243;SDS011;22284;49.956;19.816;2022-12-18T10:25:53;80.60;;;29.87;;
36243;SDS011;22284;49.956;19.816;2022-12-18T10:28:58;74.37;;;29.13;;
36243;SDS011;22284;49.956;19.816;2022-12-18T10:31:59;70.83;;;29.20;;
36243;SDS011;22284;49.956;19.816;2022-12-18T10:35:00;75.57;;;31.17;;
36243;SDS011;22284;49.956;19.816;2022-12-18T10:38:06;79.40;;;30.93;;
36243;SDS011;22284;49.956;19.816;2022-12-18T10:44:26;74.03;;;27.20;;
36243;SDS011;22284;49.956;19.816;2022-12-18T10:47:27;83.27;;;31.80;;
36243;SDS011;22284;49.956;19.816;2022-12-18T10:53:37;76.57;;;30.97;;
36243;SDS011;22284;49.956;19.816;2022-12-18T10:56:40;76.82;;;30.82;;
36243;SDS011;22284;49.956;19.816;2022-12-18T10:59:52;77.90;;;31.10;;
36243;SDS011;22284;49.956;19.816;2022-12-18T11:02:56;73.80;;;29.47;;
36243;SDS011;22284;49.956;19.816;2022-12-18T11:06:09;82.17;;;31.53;;
36243;SDS011;22284;49.956;19.816;2022-12-18T11:09:20;74.00;;;31.23;;
36243;SDS011;22284;49.956;19.816;2022-12-18T11:12:24;83.73;;;32.57;;
36243;SDS011;22284;49.956;19.816;2022-12-18T11:15:26;83.37;;;33.70;;
36243;SDS011;22284;49.956;19.816;2022-12-18T11:18:32;92.53;;;37.23;;
36243;SDS011;22284;49.956;19.816;2022-12-18T11:21:38;84.27;;;34.50;;
36243;SDS011;22284;49.956;19.816;2022-12-18T11:24:41;84.07;;;36.10;;
36243;SDS011;22284;49.956;19.816;2022-12-18T11:27:53;84.40;;;36.50;;
36243;SDS011;22284;49.956;19.816;2022-12-18T11:34:29;73.30;;;29.40;;
36243;SDS011;22284;49.956;19.816;2022-12-18T11:37:32;74.97;;;30.77;;
36243;SDS011;22284;49.956;19.816;2022-12-18T11:40:40;71.33;;;30.70;;
36243;SDS011;22284;49.956;19.816;2022-12-18T11:43:47;75.67;;;30.43;;
36243;SDS011;22284;49.956;19.816;2022-12-18T11:46:59;70.40;;;27.27;;
36243;SDS011;22284;49.956;19.816;2022-12-18T11:50:25;67.60;;;28.60;;
36243;SDS011;22284;49.956;19.816;2022-12-18T11:53:36;71.70;;;28.20;;
36243;SDS011;22284;49.956;19.816;2022-12-18T11:56:40;66.93;;;27.23;;
36243;SDS011;22284;49.956;19.816;2022-12-18T12:00:03;71.33;;;27.13;;
36243;SDS011;22284;49.956;19.816;2022-12-18T12:13:43;69.23;;;28.27;;
36243;SDS011;22284;49.956;19.816;2022-12-18T12:31:13;48.13;;;18.70;;
36243;SDS011;22284;49.956;19.816;2022-12-18T12:34:50;60.57;;;25.30;;
36243;SDS011;22284;49.956;19.816;2022-12-18T12:38:26;64.63;;;26.20;;
36243;SDS011;22284;49.956;19.816;2022-12-18T12:41:34;64.77;;;26.37;;
36243;SDS011;22284;49.956;19.816;2022-12-18T12:44:55;63.97;;;26.33;;
36243;SDS011;22284;49.956;19.816;2022-12-18T12:51:03;67.07;;;25.10;;
36243;SDS011;22284;49.956;19.816;2022-12-18T12:54:21;63.63;;;25.83;;
36243;SDS011;22284;49.956;19.816;2022-12-18T13:00:41;70.93;;;26.77;;
36243;SDS011;22284;49.956;19.816;2022-12-18T13:03:55;61.60;;;21.57;;
36243;SDS011;22284;49.956;19.816;2022-12-18T13:10:39;86.00;;;31.37;;
36243;SDS011;22284;49.956;19.816;2022-12-18T13:13:52;87.47;;;32.20;;
36243;SDS011;22284;49.956;19.816;2022-12-18T13:20:32;59.73;;;23.38;;
36243;SDS011;22284;49.956;19.816;2022-12-18T13:23:38;68.73;;;28.57;;
36243;SDS011;22284;49.956;19.816;2022-12-18T13:26:40;67.83;;;26.97;;
36243;SDS011;22284;49.956;19.816;2022-12-18T13:29:42;66.23;;;26.37;;
36243;SDS011;22284;49.956;19.816;2022-12-18T13:32:45;65.77;;;25.60;;
36243;SDS011;22284;49.956;19.816;2022-12-18T13:39:09;59.67;;;24.60;;
36243;SDS011;22284;49.956;19.816;2022-12-18T13:46:00;101.30;;;45.63;;
36243;SDS011;22284;49.956;19.816;2022-12-18T13:52:27;184.07;;;75.90;;
36243;SDS011;22284;49.956;19.816;2022-12-18T13:55:31;66.67;;;29.00;;
36243;SDS011;22284;49.956;19.816;2022-12-18T13:58:32;67.30;;;29.60;;
36243;SDS011;22284;49.956;19.816;2022-12-18T14:01:34;61.60;;;25.83;;
36243;SDS011;22284;49.956;19.816;2022-12-18T14:04:35;53.83;;;24.37;;
36243;SDS011;22284;49.956;19.816;2022-12-18T14:07:36;52.27;;;23.20;;
36243;SDS011;22284;49.956;19.816;2022-12-18T14:10:45;57.47;;;25.00;;
36243;SDS011;22284;49.956;19.816;2022-12-18T14:13:48;55.30;;;21.27;;
36243;SDS011;22284;49.956;19.816;2022-12-18T14:16:50;57.97;;;23.37;;
36243;SDS011;22284;49.956;19.816;2022-12-18T14:19:52;63.60;;;26.50;;
36243;SDS011;22284;49.956;19.816;2022-12-18T14:22:53;61.93;;;26.90;;
36243;SDS011;22284;49.956;19.816;2022-12-18T14:25:56;71.83;;;31.33;;
36243;SDS011;22284;49.956;19.816;2022-12-18T14:29:01;83.67;;;38.03;;
36243;SDS011;22284;49.956;19.816;2022-12-18T14:32:24;111.83;;;48.03;;
36243;SDS011;22284;49.956;19.816;2022-12-18T14:35:25;164.43;;;64.03;;
36243;SDS011;22284;49.956;19.816;2022-12-18T14:38:27;136.73;;;51.93;;
36243;SDS011;22284;49.956;19.816;2022-12-18T14:41:36;181.13;;;69.57;;
36243;SDS011;22284;49.956;19.816;2022-12-18T14:44:37;211.90;;;80.33;;
36243;SDS011;22284;49.956;19.816;2022-12-18T14:47:38;162.50;;;59.73;;
36243;SDS011;22284;49.956;19.816;2022-12-18T14:50:41;130.43;;;51.63;;
36243;SDS011;22284;49.956;19.816;2022-12-18T14:53:47;117.03;;;43.60;;
36243;SDS011;22284;49.956;19.816;2022-12-18T14:56:49;156.50;;;59.20;;
36243;SDS011;22284;49.956;19.816;2022-12-18T14:59:55;143.50;;;58.90;;
36243;SDS011;22284;49.956;19.816;2022-12-18T15:03:09;128.27;;;51.00;;
36243;SDS011;22284;49.956;19.816;2022-12-18T15:06:17;103.50;;;42.83;;
36243;SDS011;22284;49.956;19.816;2022-12-18T15:09:26;146.60;;;59.70;;
36243;SDS011;22284;49.956;19.816;2022-12-18T15:12:38;182.87;;;77.20;;
36243;SDS011;22284;49.956;19.816;2022-12-18T15:15:47;88.17;;;35.60;;
36243;SDS011;22284;49.956;19.816;2022-12-18T15:18:49;76.37;;;31.10;;
36243;SDS011;22284;49.956;19.816;2022-12-18T15:21:50;89.93;;;39.23;;
36243;SDS011;22284;49.956;19.816;2022-12-18T15:24:51;103.53;;;48.60;;
36243;SDS011;22284;49.956;19.816;2022-12-18T15:27:54;75.92;;;31.68;;
36243;SDS011;22284;49.956;19.816;2022-12-18T15:30:58;71.90;;;29.57;;
36243;SDS011;22284;49.956;19.816;2022-12-18T15:34:19;66.92;;;28.47;;
36243;SDS011;22284;49.956;19.816;2022-12-18T15:37:22;75.22;;;30.95;;
36243;SDS011;22284;49.956;19.816;2022-12-18T15:40:23;72.30;;;28.67;;
36243;SDS011;22284;49.956;19.816;2022-12-18T15:43:24;72.03;;;29.27;;
36243;SDS011;22284;49.956;19.816;2022-12-18T15:46:35;77.20;;;30.57;;
36243;SDS011;22284;49.956;19.816;2022-12-18T15:49:36;75.03;;;28.63;;
36243;SDS011;22284;49.956;19.816;2022-12-18T15:52:41;72.97;;;28.13;;
36243;SDS011;22284;49.956;19.816;2022-12-18T15:55:48;72.00;;;30.27;;
36243;SDS011;22284;49.956;19.816;2022-12-18T15:59:11;86.07;;;35.70;;
36243;SDS011;22284;49.956;19.816;2022-12-18T16:02:19;88.47;;;39.30;;
36243;SDS011;22284;49.956;19.816;2022-12-18T16:05:22;89.10;;;40.30;;
36243;SDS011;22284;49.956;19.816;2022-12-18T16:08:24;90.07;;;37.90;;
36243;SDS011;22284;49.956;19.816;2022-12-18T16:11:30;96.90;;;40.67;;
36243;SDS011;22284;49.956;19.816;2022-12-18T16:14:39;83.60;;;36.77;;
36243;SDS011;22284;49.956;19.816;2022-12-18T16:17:40;92.00;;;36.87;;
36243;SDS011;22284;49.956;19.816;2022-12-18T16:20:42;77.27;;;32.37;;
36243;SDS011;22284;49.956;19.816;2022-12-18T16:23:43;78.10;;;31.23;;
36243;SDS011;22284;49.956;19.816;2022-12-18T16:26:44;79.63;;;32.03;;
36243;SDS011;22284;49.956;19.816;2022-12-18T16:29:45;77.57;;;32.70;;
36243;SDS011;22284;49.956;19.816;2022-12-18T16:32:47;75.97;;;30.70;;
36243;SDS011;22284;49.956;19.816;2022-12-18T16:35:51;78.17;;;31.23;;
36243;SDS011;22284;49.956;19.816;2022-12-18T16:38:53;87.77;;;34.30;;
36243;SDS011;22284;49.956;19.816;2022-12-18T16:41:54;89.77;;;37.27;;
36243;SDS011;22284;49.956;19.816;2022-12-18T16:44:55;81.60;;;33.60;;
36243;SDS011;22284;49.956;19.816;2022-12-18T16:47:56;87.13;;;33.47;;
36243;SDS011;22284;49.956;19.816;2022-12-18T16:51:01;105.27;;;40.63;;
36243;SDS011;22284;49.956;19.816;2022-12-18T16:54:04;94.67;;;38.27;;
36243;SDS011;22284;49.956;19.816;2022-12-18T16:57:05;89.33;;;36.90;;
36243;SDS011;22284;49.956;19.816;2022-12-18T17:00:07;95.20;;;40.03;;
36243;SDS011;22284;49.956;19.816;2022-12-18T17:03:10;96.92;;;39.20;;
36243;SDS011;22284;49.956;19.816;2022-12-18T17:06:11;93.70;;;37.57;;
36243;SDS011;22284;49.956;19.816;2022-12-18T17:09:13;89.50;;;37.77;;
36243;SDS011;22284;49.956;19.816;2022-12-18T17:12:17;78.17;;;31.20;;
36243;SDS011;22284;49.956;19.816;2022-12-18T17:15:17;79.07;;;33.60;;
36243;SDS011;22284;49.956;19.816;2022-12-18T17:18:18;79.17;;;32.97;;
36243;SDS011;22284;49.956;19.816;2022-12-18T17:21:20;82.33;;;32.43;;
36243;SDS011;22284;49.956;19.816;2022-12-18T17:24:21;75.63;;;30.77;;
36243;SDS011;22284;49.956;19.816;2022-12-18T17:27:22;78.97;;;31.07;;
36243;SDS011;22284;49.956;19.816;2022-12-18T17:30:23;105.10;;;39.37;;
36243;SDS011;22284;49.956;19.816;2022-12-18T17:33:24;95.03;;;38.37;;
36243;SDS011;22284;49.956;19.816;2022-12-18T17:36:26;69.53;;;27.97;;
36243;SDS011;22284;49.956;19.816;2022-12-18T17:39:33;69.07;;;27.47;;
36243;SDS011;22284;49.956;19.816;2022-12-18T17:42:34;68.43;;;27.27;;
36243;SDS011;22284;49.956;19.816;2022-12-18T17:45:40;70.10;;;25.93;;
36243;SDS011;22284;49.956;19.816;2022-12-18T17:48:39;79.50;;;28.45;;
36243;SDS011;22284;49.956;19.816;2022-12-18T17:51:40;70.00;;;28.83;;
36243;SDS011;22284;49.956;19.816;2022-12-18T17:54:42;75.33;;;31.27;;
36243;SDS011;22284;49.956;19.816;2022-12-18T17:57:43;79.97;;;32.43;;
36243;SDS011;22284;49.956;19.816;2022-12-18T18:00:44;82.97;;;31.93;;
36243;SDS011;22284;49.956;19.816;2022-12-18T18:16:24;114.17;;;46.57;;
36243;SDS011;22284;49.956;19.816;2022-12-18T18:19:25;107.47;;;43.73;;
36243;SDS011;22284;49.956;19.816;2022-12-18T18:22:26;108.37;;;42.67;;
36243;SDS011;22284;49.956;19.816;2022-12-18T18:25:27;96.70;;;40.67;;
36243;SDS011;22284;49.956;19.816;2022-12-18T18:28:28;105.00;;;41.23;;
36243;SDS011;22284;49.956;19.816;2022-12-18T18:31:30;96.27;;;39.40;;
36243;SDS011;22284;49.956;19.816;2022-12-18T18:34:32;98.40;;;40.77;;
36243;SDS011;22284;49.956;19.816;2022-12-18T18:37:35;105.35;;;40.75;;
36243;SDS011;22284;49.956;19.816;2022-12-18T18:40:36;106.30;;;41.43;;
36243;SDS011;22284;49.956;19.816;2022-12-18T18:43:37;123.73;;;49.30;;
36243;SDS011;22284;49.956;19.816;2022-12-18T18:46:38;145.33;;;57.63;;
36243;SDS011;22284;49.956;19.816;2022-12-18T18:49:39;93.60;;;36.20;;
36243;SDS011;22284;49.956;19.816;2022-12-18T18:52:40;143.73;;;55.83;;
36243;SDS011;22284;49.956;19.816;2022-12-18T18:55:41;152.63;;;57.07;;
36243;SDS011;22284;49.956;19.816;2022-12-18T18:58:42;144.63;;;57.27;;
36243;SDS011;22284;49.956;19.816;2022-12-18T19:01:43;97.63;;;38.93;;
36243;SDS011;22284;49.956;19.816;2022-12-18T19:04:44;64.60;;;26.50;;
36243;SDS011;22284;49.956;19.816;2022-12-18T19:07:45;73.70;;;27.30;;
36243;SDS011;22284;49.956;19.816;2022-12-18T19:10:46;74.47;;;26.97;;
36243;SDS011;22284;49.956;19.816;2022-12-18T19:13:53;75.63;;;29.53;;
36243;SDS011;22284;49.956;19.816;2022-12-18T19:16:56;80.10;;;29.67;;